Time;durP1;ratioP1;P1;durP2;ratioP2;P2;SDS_P1;SDS_P2;PMS_P1;PMS_P2;Temp;Humidity;BMP_temperature;BMP_pressure;BME280_temperature;BME280_humidity;BME280_pressure;Samples;Min_cycle;Max_cycle;Signal;HPM_P1;HPM_P2
2021/04/25 00:01:14;;;;;;;11.60;5.95;;;11.30;83.50;;;;;;5008598;28;20073;-48
2021/04/25 00:04:19;;;;;;;14.02;5.97;;;11.20;83.60;;;;;;5009833;28;20045;-52
2021/04/25 00:07:23;;;;;;;15.45;6.53;;;11.20;83.70;;;;;;5009190;28;20052;-47
2021/04/25 00:10:27;;;;;;;11.90;5.32;;;11.20;83.80;;;;;;5008410;28;20416;-47
2021/04/25 00:13:31;;;;;;;12.13;5.18;;;11.20;83.80;;;;;;5008916;28;20045;-50
2021/04/25 00:16:36;;;;;;;8.82;4.13;;;11.30;83.60;;;;;;5009425;28;20072;-50
2021/04/25 00:19:40;;;;;;;13.80;5.40;;;11.30;83.40;;;;;;5008392;28;20052;-49
2021/04/25 00:22:46;;;;;;;12.82;5.53;;;11.30;84.00;;;;;;5009015;28;20299;-48
2021/04/25 00:25:50;;;;;;;16.98;6.63;;;11.30;83.50;;;;;;4989503;28;20045;-50
2021/04/25 00:28:54;;;;;;;11.45;4.70;;;11.30;83.60;;;;;;5006416;28;20068;-49
2021/04/25 00:31:58;;;;;;;10.57;4.47;;;11.30;83.60;;;;;;5008036;28;20512;-52
2021/04/25 00:35:04;;;;;;;10.13;4.85;;;11.30;83.80;;;;;;5009544;28;20052;-47
2021/04/25 00:38:09;;;;;;;7.80;4.13;;;11.30;84.50;;;;;;5008679;28;20048;-49
2021/04/25 00:41:13;;;;;;;8.88;4.47;;;11.20;84.30;;;;;;5008141;28;20049;-49
2021/04/25 00:44:17;;;;;;;8.75;4.32;;;10.80;87.30;;;;;;5009659;28;20049;-49
2021/04/25 00:47:21;;;;;;;6.57;4.25;;;10.80;88.90;;;;;;5011805;28;20543;-48
2021/04/25 00:50:26;;;;;;;8.45;4.72;;;10.80;89.50;;;;;;5012415;28;20041;-48
2021/04/25 00:53:44;;;;;;;6.32;3.90;;;10.70;89.30;;;;;;5012688;28;20060;-48
2021/04/25 00:56:48;;;;;;;8.45;4.07;;;10.70;90.00;;;;;;5013244;28;20052;-48
2021/04/25 00:59:54;;;;;;;9.15;4.75;;;10.70;90.20;;;;;;5012253;28;20057;-48
2021/04/25 01:02:58;;;;;;;8.50;4.95;;;10.70;90.20;;;;;;5012260;28;20065;-48
2021/04/25 01:06:03;;;;;;;7.93;4.18;;;10.60;90.40;;;;;;4994821;28;20045;-50
2021/04/25 01:09:08;;;;;;;13.63;4.25;;;10.60;91.00;;;;;;5011177;28;20041;-48
2021/04/25 01:12:12;;;;;;;7.68;3.95;;;10.50;91.40;;;;;;5012069;28;20057;-48
2021/04/25 01:15:18;;;;;;;6.65;4.22;;;10.50;91.60;;;;;;5011831;28;20396;-48
2021/04/25 01:18:22;;;;;;;6.10;3.72;;;10.40;92.20;;;;;;5011712;28;20049;-49
2021/04/25 01:21:26;;;;;;;7.07;3.60;;;10.50;91.90;;;;;;5011242;28;20061;-47
2021/04/25 01:24:30;;;;;;;5.30;3.72;;;10.50;91.60;;;;;;5012963;28;20053;-47
2021/04/25 01:27:41;;;;;;;7.40;3.85;;;10.50;91.80;;;;;;5011539;28;20060;-47
2021/04/25 01:30:45;;;;;;;6.65;4.28;;;10.40;92.40;;;;;;5011627;28;20048;-48
2021/04/25 01:33:50;;;;;;;8.35;4.60;;;10.30;92.80;;;;;;5012516;28;20045;-49
2021/04/25 01:36:56;;;;;;;6.18;4.03;;;10.20;93.70;;;;;;5011633;28;20053;-47
2021/04/25 01:40:01;;;;;;;8.60;4.63;;;10.10;94.40;;;;;;5011285;28;20056;-47
2021/04/25 01:43:05;;;;;;;7.03;5.18;;;10.10;95.10;;;;;;5011205;28;20045;-47
2021/04/25 01:46:10;;;;;;;7.85;5.32;;;10.10;95.60;;;;;;5011941;28;20069;-48
2021/04/25 01:49:14;;;;;;;6.40;4.30;;;10.00;96.20;;;;;;5011375;28;20049;-47
2021/04/25 01:52:18;;;;;;;9.88;5.20;;;10.00;96.90;;;;;;5011064;28;20053;-47
2021/04/25 01:55:24;;;;;;;9.60;4.65;;;10.00;97.30;;;;;;5012307;28;20527;-48
2021/04/25 01:58:28;;;;;;;8.88;4.60;;;9.90;97.70;;;;;;5009759;28;20064;-49
2021/04/25 02:01:33;;;;;;;7.38;4.70;;;9.80;98.10;;;;;;5011219;28;20049;-48
2021/04/25 02:04:38;;;;;;;7.60;4.90;;;9.70;98.80;;;;;;5011531;28;20497;-47
2021/04/25 02:07:46;;;;;;;7.10;4.43;;;9.60;99.70;;;;;;5010517;28;20041;-50
2021/04/25 02:10:51;;;;;;;11.00;5.75;;;9.50;99.90;;;;;;5010999;28;20046;-52
2021/04/25 02:13:55;;;;;;;9.45;5.13;;;9.60;99.90;;;;;;5011479;28;20049;-48
2021/04/25 02:16:59;;;;;;;8.32;5.15;;;9.60;99.90;;;;;;5010923;28;20505;-48
2021/04/25 02:20:05;;;;;;;8.80;5.13;;;9.70;99.90;;;;;;5010328;28;20046;-53
2021/04/25 02:23:10;;;;;;;11.10;4.72;;;9.70;99.90;;;;;;5011227;28;20033;-52
2021/04/25 02:26:14;;;;;;;9.30;5.65;;;9.70;99.90;;;;;;5009944;28;20057;-48
2021/04/25 02:29:18;;;;;;;7.03;4.88;;;9.70;99.90;;;;;;5010369;28;20041;-50
2021/04/25 02:32:22;;;;;;;6.45;4.55;;;9.70;99.90;;;;;;5010483;28;20034;-48
2021/04/25 02:35:28;;;;;;;8.57;5.07;;;9.70;99.90;;;;;;4991693;28;20038;-47
2021/04/25 02:38:32;;;;;;;7.70;5.32;;;9.70;99.90;;;;;;5005961;28;20050;-52
2021/04/25 02:41:36;;;;;;;8.93;5.30;;;9.70;99.90;;;;;;5010685;28;20038;-48
2021/04/25 02:44:40;;;;;;;8.45;5.68;;;9.60;99.90;;;;;;4991850;28;20042;-53
2021/04/25 02:47:57;;;;;;;8.40;5.45;;;9.60;99.90;;;;;;5008197;28;20037;-50
2021/04/25 02:51:02;;;;;;;16.63;8.52;;;9.50;99.90;;;;;;5009806;28;20146;-53
2021/04/25 02:54:06;;;;;;;16.08;8.43;;;9.50;99.90;;;;;;5010708;28;20167;-48
2021/04/25 02:57:10;;;;;;;10.30;5.70;;;9.50;99.90;;;;;;5009499;28;20056;-48
2021/04/25 03:00:17;;;;;;;11.23;6.32;;;9.50;99.90;;;;;;5010030;28;20045;-48
2021/04/25 03:03:21;;;;;;;8.98;5.53;;;9.50;99.90;;;;;;5010349;28;20523;-49
2021/04/25 03:06:26;;;;;;;8.48;5.70;;;9.40;99.90;;;;;;5009713;28;20046;-48
2021/04/25 03:09:30;;;;;;;7.57;5.28;;;9.30;99.90;;;;;;5009670;28;20057;-49
2021/04/25 03:12:35;;;;;;;9.70;5.88;;;9.30;99.90;;;;;;5009765;28;20038;-49
2021/04/25 03:15:39;;;;;;;10.93;6.38;;;9.30;99.90;;;;;;4998503;28;20042;-48
2021/04/25 03:18:43;;;;;;;11.50;6.60;;;9.30;99.90;;;;;;5009735;28;20064;-48
2021/04/25 03:21:47;;;;;;;11.98;5.88;;;9.20;99.90;;;;;;5009670;28;20629;-48
2021/04/25 03:24:51;;;;;;;11.52;6.05;;;9.10;99.90;;;;;;4990819;28;20512;-48
2021/04/25 03:27:55;;;;;;;12.00;6.32;;;9.00;99.90;;;;;;5006480;28;20060;-52
2021/04/25 03:30:59;;;;;;;8.93;6.18;;;9.00;99.90;;;;;;5010581;28;20053;-49
2021/04/25 03:34:06;;;;;;;10.63;5.32;;;8.90;99.90;;;;;;5009880;28;20293;-48
2021/04/25 03:37:10;;;;;;;11.93;5.30;;;8.90;99.90;;;;;;5008983;28;20397;-48
2021/04/25 03:40:18;;;;;;;9.75;6.85;;;8.90;99.90;;;;;;5009132;28;20041;-48
2021/04/25 03:43:23;;;;;;;9.23;5.47;;;8.90;99.90;;;;;;5010227;28;20422;-48
2021/04/25 03:46:28;;;;;;;8.23;5.43;;;8.80;99.90;;;;;;5009758;28;20042;-49
2021/04/25 03:49:32;;;;;;;9.77;5.63;;;8.80;99.90;;;;;;5009428;28;20038;-48
2021/04/25 03:52:36;;;;;;;10.18;5.88;;;8.90;99.90;;;;;;5010255;28;20038;-49
2021/04/25 03:55:40;;;;;;;14.05;5.50;;;8.90;99.90;;;;;;5007957;28;20045;-48
2021/04/25 03:58:44;;;;;;;9.05;6.07;;;8.80;99.90;;;;;;5009180;28;20045;-49
2021/04/25 04:01:48;;;;;;;10.98;6.43;;;8.80;99.90;;;;;;5009697;28;20385;-52
2021/04/25 04:04:52;;;;;;;8.07;5.57;;;8.70;99.90;;;;;;4990687;28;20049;-48
2021/04/25 04:07:56;;;;;;;9.70;5.63;;;8.70;99.90;;;;;;5003207;28;20041;-49
2021/04/25 04:11:00;;;;;;;11.50;6.18;;;8.60;99.90;;;;;;5009783;28;20046;-47
2021/04/25 04:14:04;;;;;;;8.48;5.85;;;8.50;99.90;;;;;;4990384;28;20038;-52
2021/04/25 04:17:08;;;;;;;11.10;6.03;;;8.50;99.90;;;;;;5005124;28;20049;-48
2021/04/25 04:20:13;;;;;;;9.18;5.88;;;8.40;99.90;;;;;;5009504;28;20048;-49
2021/04/25 04:23:17;;;;;;;11.93;6.72;;;8.40;99.90;;;;;;5009915;28;20054;-47
2021/04/25 04:26:21;;;;;;;11.73;6.93;;;8.30;99.90;;;;;;5008379;28;20409;-48
2021/04/25 04:29:27;;;;;;;16.05;8.10;;;8.20;99.90;;;;;;5008848;28;20049;-48
2021/04/25 04:32:32;;;;;;;15.20;8.13;;;8.20;99.90;;;;;;5009062;28;20049;-48
2021/04/25 04:35:36;;;;;;;14.93;7.45;;;8.20;99.90;;;;;;5004233;28;20052;-48
2021/04/25 04:38:41;;;;;;;12.50;7.03;;;8.20;99.90;;;;;;5009100;28;20126;-47
2021/04/25 04:41:44;;;;;;;16.23;7.75;;;8.30;99.90;;;;;;5009821;28;20049;-48
2021/04/25 04:44:48;;;;;;;11.80;7.15;;;8.40;99.90;;;;;;5006473;28;20061;-52
2021/04/25 04:47:52;;;;;;;13.15;6.70;;;8.40;99.90;;;;;;5008489;28;20045;-48
2021/04/25 04:50:56;;;;;;;12.88;6.70;;;8.50;99.90;;;;;;5009935;28;20404;-48
2021/04/25 04:54:00;;;;;;;12.20;7.22;;;8.50;99.90;;;;;;5007970;28;20053;-48
2021/04/25 04:57:05;;;;;;;9.13;6.07;;;8.60;99.90;;;;;;5008171;28;20404;-48
2021/04/25 05:00:10;;;;;;;8.88;5.85;;;8.80;99.90;;;;;;5009222;28;20037;-48
2021/04/25 05:03:15;;;;;;;11.55;6.40;;;8.90;99.90;;;;;;5009611;28;20042;-48
2021/04/25 05:06:19;;;;;;;10.13;6.20;;;9.00;99.90;;;;;;5007912;28;20048;-48
2021/04/25 05:09:23;;;;;;;13.10;6.07;;;9.10;99.90;;;;;;5009304;28;20072;-49
2021/04/25 05:12:27;;;;;;;9.60;5.82;;;9.40;99.90;;;;;;4988985;28;20049;-48
2021/04/25 05:15:31;;;;;;;9.75;5.57;;;11.90;99.90;;;;;;5005692;28;20033;-49
2021/04/25 05:18:38;;;;;;;11.20;5.80;;;14.50;99.90;;;;;;5008767;28;20524;-49
2021/04/25 05:21:42;;;;;;;8.02;5.32;;;15.60;98.40;;;;;;5009172;28;20061;-50
2021/04/25 05:24:47;;;;;;;10.75;5.75;;;17.10;96.80;;;;;;5008624;28;20053;-48
2021/04/25 05:27:51;;;;;;;10.40;5.75;;;17.90;94.80;;;;;;5008186;28;20072;-47
2021/04/25 05:30:56;;;;;;;10.52;5.70;;;18.50;93.20;;;;;;5009722;28;20053;-48
2021/04/25 05:34:00;;;;;;;7.55;4.65;;;19.30;92.10;;;;;;5012392;28;20515;-48
2021/04/25 05:37:05;;;;;;;7.93;5.32;;;20.10;90.70;;;;;;5011947;28;20115;-50
2021/04/25 05:40:12;;;;;;;13.65;5.20;;;20.60;90.50;;;;;;5012285;28;20048;-46
2021/04/25 05:43:16;;;;;;;8.45;4.97;;;21.10;89.00;;;;;;5011812;28;20535;-46
2021/04/25 05:46:20;;;;;;;8.18;5.18;;;22.10;86.10;;;;;;5010466;28;20134;-49
2021/04/25 05:49:24;;;;;;;8.43;5.35;;;22.40;82.50;;;;;;5011828;28;20041;-48
2021/04/25 05:52:29;;;;;;;9.80;5.35;;;21.90;81.80;;;;;;4992667;28;20057;-49
2021/04/25 05:55:33;;;;;;;7.97;5.05;;;18.90;85.60;;;;;;5005802;28;20029;-49
2021/04/25 05:58:37;;;;;;;7.45;4.88;;;19.80;86.40;;;;;;5011702;28;20404;-49
2021/04/25 06:01:41;;;;;;;7.30;4.63;;;21.00;85.10;;;;;;5012101;28;20045;-50
2021/04/25 06:04:45;;;;;;;10.02;6.90;;;22.20;81.60;;;;;;5010427;28;20057;-50
2021/04/25 06:07:51;;;;;;;10.85;6.00;;;22.90;79.70;;;;;;5011251;28;20041;-48
2021/04/25 06:10:56;;;;;;;11.85;7.13;;;23.70;77.50;;;;;;5002858;28;20249;-49
2021/04/25 06:14:01;;;;;;;14.10;9.70;;;23.90;76.60;;;;;;5011215;28;20045;-48
2021/04/25 06:17:05;;;;;;;15.25;10.27;;;24.00;75.70;;;;;;4998818;28;20064;-51
2021/04/25 06:20:09;;;;;;;14.90;9.93;;;23.90;75.40;;;;;;5012122;28;20049;-49
2021/04/25 06:23:14;;;;;;;17.23;9.32;;;24.20;72.70;;;;;;5006391;28;20041;-49
2021/04/25 06:26:18;;;;;;;17.00;10.75;;;24.10;72.10;;;;;;5009890;28;20052;-46
2021/04/25 06:29:31;;;;;;;19.20;12.35;;;24.40;71.40;;;;;;5011323;28;20041;-48
2021/04/25 06:32:40;;;;;;;21.92;11.93;;;24.20;70.70;;;;;;5011234;28;20045;-49
2021/04/25 06:35:44;;;;;;;21.75;13.82;;;22.40;72.00;;;;;;5010004;28;20092;-50
2021/04/25 06:38:49;;;;;;;19.40;11.25;;;20.90;74.50;;;;;;5010863;28;20044;-50
2021/04/25 06:41:53;;;;;;;14.30;10.00;;;20.60;76.60;;;;;;5013552;28;20045;-48
2021/04/25 06:44:58;;;;;;;13.68;8.60;;;20.30;77.60;;;;;;5010063;28;20427;-48
2021/04/25 06:48:03;;;;;;;13.60;8.00;;;19.90;78.60;;;;;;5025468;28;20053;-48
2021/04/25 06:51:07;;;;;;;14.38;7.20;;;20.00;78.40;;;;;;5007773;28;20041;-47
2021/04/25 06:54:12;;;;;;;11.73;8.40;;;20.10;78.20;;;;;;5015329;28;20411;-50
2021/04/25 06:57:16;;;;;;;18.73;11.00;;;20.40;77.20;;;;;;4999920;28;20504;-48
2021/04/25 07:00:23;;;;;;;17.15;11.85;;;20.40;78.70;;;;;;4993562;28;20053;-49
2021/04/25 07:03:27;;;;;;;21.25;12.00;;;19.00;80.20;;;;;;4992157;28;20053;-52
2021/04/25 07:06:17;;;;;;;16.35;9.52;;;19.10;81.30;;;;;;5058771;28;20377;-49
2021/04/25 07:09:21;;;;;;;16.77;9.43;;;19.60;80.90;;;;;;5046531;28;20045;-53
2021/04/25 07:12:25;;;;;;;8.07;6.50;;;19.60;79.40;;;;;;5054145;28;20046;-50
2021/04/25 07:15:30;;;;;;;12.18;6.60;;;19.90;79.50;;;;;;5055066;28;20048;-47
2021/04/25 07:18:34;;;;;;;10.23;6.05;;;19.40;78.20;;;;;;5058032;28;20045;-47
2021/04/25 07:21:39;;;;;;;9.77;6.97;;;21.50;77.30;;;;;;5050821;28;20043;-48
2021/04/25 07:24:42;;;;;;;11.32;6.88;;;21.00;78.10;;;;;;5053131;28;20634;-48
2021/04/25 07:27:48;;;;;;;8.95;5.65;;;20.00;76.90;;;;;;5050405;28;20040;-49
2021/04/25 07:30:53;;;;;;;11.45;6.70;;;22.60;75.60;;;;;;5051678;28;20041;-48
2021/04/25 07:33:58;;;;;;;12.50;6.47;;;24.00;72.60;;;;;;5046106;28;20044;-50
2021/04/25 07:37:07;;;;;;;9.35;6.55;;;24.10;71.00;;;;;;5042687;28;20047;-49
2021/04/25 07:40:12;;;;;;;9.52;6.45;;;25.20;68.20;;;;;;5063544;28;20044;-49
2021/04/25 07:43:16;;;;;;;8.68;6.40;;;24.00;70.20;;;;;;5009078;28;20041;-50
2021/04/25 07:46:20;;;;;;;8.00;5.82;;;24.60;68.80;;;;;;5017085;28;20797;-49
2021/04/25 07:49:26;;;;;;;10.13;5.80;;;24.50;68.00;;;;;;5034592;28;20049;-53
2021/04/25 07:52:30;;;;;;;8.82;6.82;;;25.40;67.40;;;;;;5038766;28;20048;-51
2021/04/25 07:55:34;;;;;;;8.80;6.10;;;24.50;67.10;;;;;;5045860;28;20048;-51
2021/04/25 07:58:38;;;;;;;7.80;5.63;;;25.60;67.10;;;;;;5048141;28;20056;-50
2021/04/25 08:01:55;;;;;;;10.00;5.20;;;23.40;68.10;;;;;;5039402;28;20041;-50
2021/04/25 08:04:59;;;;;;;6.40;5.25;;;22.70;66.90;;;;;;5045433;28;20055;-50
2021/04/25 08:08:04;;;;;;;8.88;6.20;;;23.90;67.70;;;;;;5040243;28;20037;-49
2021/04/25 08:11:09;;;;;;;8.63;5.82;;;25.40;62.90;;;;;;5042755;28;20037;-48
2021/04/25 08:14:14;;;;;;;11.63;6.00;;;25.10;61.20;;;;;;5044668;28;20033;-49
2021/04/25 08:17:19;;;;;;;7.55;6.13;;;23.90;62.90;;;;;;5037804;28;20048;-48
2021/04/25 08:20:24;;;;;;;9.00;5.38;;;24.90;63.40;;;;;;5038828;28;20483;-47
2021/04/25 08:23:28;;;;;;;12.82;5.95;;;24.10;65.50;;;;;;5030052;28;20033;-49
2021/04/25 08:26:32;;;;;;;7.97;5.95;;;26.10;63.50;;;;;;5035656;28;20056;-49
2021/04/25 08:29:42;;;;;;;9.05;6.15;;;27.30;60.50;;;;;;5038714;28;20040;-50
2021/04/25 08:32:47;;;;;;;9.98;6.13;;;27.10;61.80;;;;;;5030327;28;20103;-49
2021/04/25 08:35:53;;;;;;;8.77;5.60;;;29.40;59.10;;;;;;5031949;28;20045;-49
2021/04/25 08:38:57;;;;;;;8.32;5.53;;;30.50;57.70;;;;;;5034353;28;20491;-48
2021/04/25 08:42:02;;;;;;;10.70;5.70;;;31.60;55.00;;;;;;5026738;28;20052;-48
2021/04/25 08:45:07;;;;;;;10.02;5.45;;;31.70;53.80;;;;;;5028765;28;20056;-48
2021/04/25 08:48:13;;;;;;;9.48;6.10;;;31.90;50.70;;;;;;5006395;28;20756;-49
2021/04/25 08:51:19;;;;;;;6.63;5.13;;;31.70;52.60;;;;;;5036948;28;20033;-48
2021/04/25 08:54:25;;;;;;;7.88;4.80;;;32.70;51.40;;;;;;5031693;28;20140;-50
2021/04/25 08:57:34;;;;;;;6.18;4.75;;;34.10;47.80;;;;;;5035485;28;20033;-49
2021/04/25 09:00:38;;;;;;;6.22;4.70;;;34.00;48.10;;;;;;5035391;28;20037;-48
2021/04/25 09:03:43;;;;;;;7.68;4.22;;;34.30;48.30;;;;;;5026727;28;20853;-52
2021/04/25 09:06:57;;;;;;;5.45;3.47;;;34.60;45.10;;;;;;5041132;28;20038;-50
2021/04/25 09:10:08;;;;;;;6.25;3.92;;;36.10;44.50;;;;;;5035054;28;20029;-49
2021/04/25 09:13:20;;;;;;;4.77;3.73;;;35.40;45.30;;;;;;5033602;28;20033;-54
2021/04/25 09:16:26;;;;;;;6.00;3.42;;;36.50;44.10;;;;;;5036500;28;20377;-52
2021/04/25 09:19:57;;;;;;;6.50;3.20;;;37.40;43.80;;;;;;5019662;28;20047;-52
2021/04/25 09:23:03;;;;;;;5.03;3.45;;;38.20;41.80;;;;;;5046192;28;20045;-54
2021/04/25 09:26:10;;;;;;;5.35;3.53;;;38.40;41.40;;;;;;5036813;28;20045;-49
2021/04/25 09:29:15;;;;;;;7.28;3.75;;;38.20;41.70;;;;;;5040899;28;20037;-53
2021/04/25 09:32:22;;;;;;;7.03;3.95;;;38.20;41.20;;;;;;5036039;28;20488;-50
2021/04/25 09:35:27;;;;;;;5.40;3.55;;;32.20;41.80;;;;;;5039342;28;20045;-50
2021/04/25 09:38:35;;;;;;;8.27;3.85;;;33.10;44.00;;;;;;5047241;28;20041;-51
2021/04/25 09:41:41;;;;;;;6.82;3.72;;;34.20;44.00;;;;;;5040975;28;20049;-51
2021/04/25 09:44:47;;;;;;;6.93;3.50;;;34.30;44.10;;;;;;5042298;28;20045;-49
2021/04/25 09:47:53;;;;;;;6.07;3.33;;;35.30;45.30;;;;;;5043199;28;20033;-50
2021/04/25 09:51:22;;;;;;;4.65;3.20;;;38.00;43.80;;;;;;5032135;28;20032;-50
2021/04/25 09:54:27;;;;;;;4.72;3.10;;;40.00;42.00;;;;;;5036078;28;20056;-52
2021/04/25 09:57:33;;;;;;;3.60;2.30;;;40.80;41.40;;;;;;5040786;28;20037;-52
2021/04/25 10:00:41;;;;;;;4.75;2.53;;;41.60;39.00;;;;;;5032813;28;20048;-51
2021/04/25 10:03:47;;;;;;;6.65;2.47;;;42.10;38.10;;;;;;5037778;28;20570;-49
2021/04/25 10:06:54;;;;;;;4.40;2.40;;;43.00;37.90;;;;;;5041848;28;20573;-53
2021/04/25 10:10:09;;;;;;;8.35;2.80;;;43.70;37.60;;;;;;5034627;28;20045;-46
2021/04/25 10:13:19;;;;;;;3.60;2.25;;;43.90;37.20;;;;;;5029782;28;20029;-48
2021/04/25 10:16:22;;;;;;;5.47;2.47;;;43.70;37.20;;;;;;5036130;28;20074;-48
2021/04/25 10:19:27;;;;;;;4.30;2.38;;;41.30;36.20;;;;;;5039164;28;20040;-52
2021/04/25 10:22:32;;;;;;;5.32;2.17;;;37.20;37.10;;;;;;5030644;28;20054;-51
2021/04/25 10:25:38;;;;;;;3.50;2.08;;;38.90;38.80;;;;;;5033064;28;20043;-51
2021/04/25 10:28:54;;;;;;;3.63;2.10;;;40.70;38.80;;;;;;5038765;28;20325;-51
2021/04/25 10:32:04;;;;;;;3.67;2.05;;;42.10;38.30;;;;;;5034143;28;20412;-48
2021/04/25 10:35:15;;;;;;;3.50;2.30;;;42.90;37.20;;;;;;5037831;28;20044;-49
2021/04/25 10:38:41;;;;;;;3.60;2.10;;;42.90;36.20;;;;;;5032561;28;20041;-50
2021/04/25 10:41:45;;;;;;;3.33;2.35;;;42.80;36.80;;;;;;5036963;28;20045;-50
2021/04/25 10:45:02;;;;;;;8.05;2.20;;;42.90;36.00;;;;;;5018377;28;20033;-53
2021/04/25 10:48:34;;;;;;;4.20;2.20;;;42.40;36.50;;;;;;5021441;28;20044;-48
2021/04/25 10:51:43;;;;;;;3.95;2.10;;;42.90;35.70;;;;;;5042508;28;20041;-48
2021/04/25 10:55:24;;;;;;;3.20;2.22;;;42.50;36.50;;;;;;5036275;28;20050;-49
2021/04/25 10:58:29;;;;;;;3.60;2.22;;;42.90;36.40;;;;;;5030605;28;20052;-52
2021/04/25 11:01:39;;;;;;;2.40;1.80;;;43.20;35.60;;;;;;5047872;28;20503;-51
2021/04/25 11:05:05;;;;;;;2.45;1.98;;;43.10;35.30;;;;;;5047692;28;20408;-48
2021/04/25 11:08:16;;;;;;;6.38;2.10;;;42.70;35.40;;;;;;5035702;28;20048;-49
2021/04/25 11:11:40;;;;;;;3.90;2.38;;;43.00;35.20;;;;;;5048315;28;20412;-53
2021/04/25 11:14:47;;;;;;;4.22;2.13;;;42.40;35.70;;;;;;5048219;28;20045;-49
2021/04/25 11:17:52;;;;;;;3.55;2.30;;;42.30;36.30;;;;;;5048237;28;20051;-49
2021/04/25 11:20:56;;;;;;;4.65;2.28;;;41.30;35.10;;;;;;5047710;28;20052;-48
2021/04/25 11:24:04;;;;;;;3.88;2.47;;;41.40;35.30;;;;;;5049353;28;20048;-50
2021/04/25 11:27:30;;;;;;;3.00;2.08;;;41.50;35.30;;;;;;5047850;28;20403;-48
2021/04/25 11:30:41;;;;;;;3.35;2.00;;;38.60;35.90;;;;;;5047104;28;20502;-49
2021/04/25 11:33:47;;;;;;;4.45;2.20;;;39.50;36.50;;;;;;5048022;28;20052;-48
2021/04/25 11:36:57;;;;;;;6.38;2.40;;;39.70;36.40;;;;;;5047735;28;20040;-51
2021/04/25 11:40:07;;;;;;;4.10;2.30;;;40.30;35.50;;;;;;5046985;28;20045;-50
2021/04/25 11:43:11;;;;;;;2.70;2.25;;;41.20;36.30;;;;;;5047825;28;20041;-47
2021/04/25 11:46:28;;;;;;;5.65;2.70;;;40.20;35.70;;;;;;5028607;28;20049;-47
2021/04/25 11:49:36;;;;;;;4.25;2.22;;;40.50;35.80;;;;;;5044355;28;20040;-51
2021/04/25 11:52:43;;;;;;;4.40;2.28;;;40.40;35.10;;;;;;5038907;28;20036;-47
2021/04/25 11:55:47;;;;;;;2.83;1.98;;;39.40;37.00;;;;;;5040061;28;20044;-46
2021/04/25 11:59:16;;;;;;;3.83;2.47;;;35.20;35.80;;;;;;5051564;28;20104;-50
2021/04/25 12:02:21;;;;;;;4.60;2.30;;;34.10;38.10;;;;;;5051279;28;20673;-49
2021/04/25 12:05:27;;;;;;;4.72;2.85;;;32.60;37.80;;;;;;5051277;28;20068;-51
2021/04/25 12:08:31;;;;;;;6.55;2.90;;;34.10;39.70;;;;;;5031020;28;20045;-50
2021/04/25 12:11:35;;;;;;;7.15;2.20;;;34.90;37.70;;;;;;5031963;28;20399;-52
2021/04/25 12:14:46;;;;;;;;;;;33.60;38.80;;;;;;5035791;28;20060;-51
2021/04/25 12:17:56;;;;;;;4.80;2.40;;;34.30;38.60;;;;;;5050684;28;19916;-53
2021/04/25 12:21:02;;;;;;;3.40;2.05;;;36.60;38.00;;;;;;5044609;28;20065;-52
2021/04/25 12:24:08;;;;;;;4.35;2.33;;;38.10;37.60;;;;;;5040297;28;20046;-50
2021/04/25 12:27:12;;;;;;;3.40;2.67;;;39.20;36.40;;;;;;5031860;28;20037;-48
2021/04/25 12:30:28;;;;;;;2.80;2.22;;;38.60;37.70;;;;;;5036627;28;20037;-50
2021/04/25 12:33:43;;;;;;;4.25;2.60;;;38.00;37.60;;;;;;5042956;28;20187;-49
2021/04/25 12:36:49;;;;;;;3.88;2.75;;;36.80;37.70;;;;;;5031270;28;20048;-49
2021/04/25 12:39:53;;;;;;;4.28;2.40;;;36.50;37.30;;;;;;5033209;28;20042;-49
2021/04/25 12:43:14;;;;;;;7.50;2.50;;;33.50;38.00;;;;;;5040442;28;20419;-50
2021/04/25 12:46:23;;;;;;;4.93;2.90;;;35.20;38.30;;;;;;5035614;28;20048;-51
2021/04/25 12:49:38;;;;;;;4.72;2.50;;;35.70;36.80;;;;;;5030791;28;20041;-53
2021/04/25 12:52:43;;;;;;;4.15;2.15;;;34.50;38.60;;;;;;5049858;28;20037;-49
2021/04/25 12:55:47;;;;;;;3.80;2.45;;;34.60;38.90;;;;;;5033504;28;20037;-48
2021/04/25 12:59:14;;;;;;;6.00;2.22;;;34.80;39.30;;;;;;5030501;28;20042;-50
2021/04/25 13:02:18;;;;;;;4.10;2.25;;;34.20;38.40;;;;;;5034532;28;20064;-50
2021/04/25 13:05:23;;;;;;;3.78;2.42;;;34.70;38.20;;;;;;5031256;28;20461;-51
2021/04/25 13:08:34;;;;;;;2.95;2.22;;;34.20;37.00;;;;;;5031604;28;20048;-50
2021/04/25 13:11:39;;;;;;;6.55;2.50;;;33.90;39.30;;;;;;5029779;28;20032;-50
2021/04/25 13:15:03;;;;;;;6.57;3.47;;;34.20;38.60;;;;;;5033586;28;20048;-53
2021/04/25 13:18:14;;;;;;;5.40;2.55;;;34.20;39.10;;;;;;5030087;28;20047;-52
2021/04/25 13:21:18;;;;;;;4.38;2.58;;;32.60;38.20;;;;;;5029505;28;20397;-48
2021/04/25 13:24:22;;;;;;;5.63;2.40;;;32.80;40.80;;;;;;5030282;28;20675;-49
2021/04/25 13:27:27;;;;;;;4.28;2.70;;;32.60;40.90;;;;;;5030809;28;20049;-48
2021/04/25 13:30:38;;;;;;;3.83;2.45;;;32.70;42.30;;;;;;5032357;28;20036;-52
2021/04/25 13:33:43;;;;;;;5.20;2.75;;;32.50;41.10;;;;;;5017485;28;20028;-51
2021/04/25 13:36:47;;;;;;;5.30;3.35;;;32.10;43.00;;;;;;5036063;28;20052;-49
2021/04/25 13:39:51;;;;;;;5.18;3.10;;;28.90;43.60;;;;;;5031726;28;20049;-51
2021/04/25 13:42:56;;;;;;;6.00;3.55;;;29.30;45.20;;;;;;5029991;28;20037;-49
2021/04/25 13:46:00;;;;;;;6.25;3.60;;;29.70;45.40;;;;;;5037583;28;20048;-48
2021/04/25 13:49:06;;;;;;;6.53;3.20;;;30.00;44.50;;;;;;5036780;28;20044;-48
2021/04/25 13:52:10;;;;;;;6.63;2.65;;;30.10;44.80;;;;;;5035871;28;20056;-49
2021/04/25 13:55:14;;;;;;;2.97;2.40;;;30.00;44.00;;;;;;5030826;28;20066;-47
2021/04/25 13:58:20;;;;;;;8.40;2.85;;;29.70;43.60;;;;;;5033172;28;20033;-48
2021/04/25 14:01:26;;;;;;;4.90;2.90;;;29.00;44.40;;;;;;5029354;28;20038;-47
2021/04/25 14:04:30;;;;;;;4.57;2.78;;;28.80;44.60;;;;;;5029981;28;20052;-49
2021/04/25 14:07:35;;;;;;;5.40;2.30;;;28.30;45.50;;;;;;5033680;28;20040;-47
2021/04/25 14:10:47;;;;;;;5.13;2.42;;;28.10;46.20;;;;;;5028755;28;20038;-50
2021/04/25 14:13:51;;;;;;;4.13;2.63;;;28.00;46.20;;;;;;5027990;28;20036;-48
2021/04/25 14:16:56;;;;;;;4.78;2.78;;;28.10;45.50;;;;;;5030876;28;20045;-47
2021/04/25 14:20:00;;;;;;;3.20;2.75;;;28.30;45.80;;;;;;5029171;28;20052;-49
2021/04/25 14:23:05;;;;;;;5.63;3.28;;;28.20;47.00;;;;;;5026869;28;20053;-47
2021/04/25 14:26:09;;;;;;;5.05;2.65;;;27.80;47.20;;;;;;5029467;28;20041;-50
2021/04/25 14:29:14;;;;;;;5.35;2.60;;;27.90;49.10;;;;;;5031063;28;20067;-48
2021/04/25 14:32:18;;;;;;;6.22;2.65;;;27.50;48.40;;;;;;5031129;28;20036;-50
2021/04/25 14:35:23;;;;;;;6.53;2.30;;;27.10;49.40;;;;;;5044300;28;20036;-50
2021/04/25 14:38:27;;;;;;;6.15;2.90;;;26.80;50.30;;;;;;5039327;28;20391;-48
2021/04/25 14:41:33;;;;;;;3.70;2.47;;;26.30;49.30;;;;;;5036987;28;20037;-49
2021/04/25 14:44:39;;;;;;;6.28;3.05;;;26.00;50.30;;;;;;5039708;28;20027;-49
2021/04/25 14:47:48;;;;;;;4.43;2.85;;;26.10;49.20;;;;;;5042691;28;20044;-49
2021/04/25 14:50:52;;;;;;;5.68;2.75;;;26.00;50.30;;;;;;5040067;28;20033;-48
2021/04/25 14:53:57;;;;;;;7.07;2.78;;;25.80;50.70;;;;;;5039183;28;20044;-51
2021/04/25 14:57:02;;;;;;;4.05;2.42;;;25.70;50.90;;;;;;5033945;28;20036;-50
2021/04/25 15:00:09;;;;;;;3.15;2.33;;;25.50;50.80;;;;;;5043182;28;20400;-50
2021/04/25 15:03:15;;;;;;;4.22;2.45;;;25.40;51.30;;;;;;5020702;28;20044;-48
2021/04/25 15:06:20;;;;;;;13.77;2.90;;;25.10;50.20;;;;;;5050625;28;20415;-47
2021/04/25 15:09:24;;;;;;;5.68;2.75;;;24.80;50.30;;;;;;5038194;28;20054;-47
2021/04/25 15:12:29;;;;;;;4.40;2.30;;;24.80;50.60;;;;;;5040155;28;20036;-48
2021/04/25 15:15:34;;;;;;;3.83;2.20;;;24.80;51.00;;;;;;5043697;28;20042;-47
2021/04/25 15:18:39;;;;;;;5.97;3.13;;;25.00;52.20;;;;;;5040120;28;20638;-47
2021/04/25 15:21:44;;;;;;;5.72;2.72;;;25.00;50.20;;;;;;5037172;28;20415;-48
2021/04/25 15:24:48;;;;;;;5.80;2.45;;;25.00;50.30;;;;;;5032815;28;20054;-47
2021/04/25 15:27:52;;;;;;;4.28;2.53;;;24.90;50.80;;;;;;5044856;28;20045;-49
2021/04/25 15:31:00;;;;;;;5.90;2.20;;;24.60;51.10;;;;;;5036456;28;20037;-49
2021/04/25 15:34:04;;;;;;;5.82;3.10;;;24.60;50.20;;;;;;5036240;28;20040;-48
2021/04/25 15:37:14;;;;;;;5.72;2.72;;;24.50;50.40;;;;;;5035622;28;20526;-51
2021/04/25 15:40:21;;;;;;;3.72;2.42;;;24.60;50.40;;;;;;5039694;28;20046;-49
2021/04/25 15:43:26;;;;;;;5.93;2.20;;;24.60;50.20;;;;;;5032596;28;20044;-48
2021/04/25 15:46:30;;;;;;;6.25;2.60;;;24.30;49.90;;;;;;5033660;28;20067;-52
2021/04/25 15:49:38;;;;;;;6.30;2.47;;;24.10;49.90;;;;;;5033055;28;20042;-50
2021/04/25 15:52:48;;;;;;;3.88;2.63;;;24.00;49.70;;;;;;5032161;28;20603;-51
2021/04/25 15:55:53;;;;;;;5.47;2.55;;;23.70;50.00;;;;;;5046575;28;20056;-50
2021/04/25 15:58:58;;;;;;;3.17;2.33;;;23.60;50.20;;;;;;5032908;28;20669;-49
2021/04/25 16:02:02;;;;;;;5.43;2.45;;;23.60;51.10;;;;;;5031936;28;20049;-53
2021/04/25 16:05:07;;;;;;;4.95;2.08;;;23.70;50.80;;;;;;5034893;28;20056;-51
2021/04/25 16:08:12;;;;;;;6.13;2.85;;;23.70;50.20;;;;;;5036302;28;20049;-50